Terminal Aerodrome Forecast
Issued by NWS Wakefield, VA

Home | Current Version | Previous Version | Text Only | Print | Product List | Glossary On
Versions: 1 2 3 4 5 6 7 8 9 10 11 12 13 14 15 16 17 18 19 20 21 22 23 24 25
000
FTUS41 KAKQ 081720
TAFSBY
TAF
KSBY 081720Z 0818/0918 30008KT P6SM FEW025 OVC040
     FM082200 30010KT P6SM SCT250
     FM090600 30013G22KT P6SM SKC
     FM091500 30012G19KT P6SM SKC=

USA.gov is the U.S. government's official web portal to all federal, state and local government web resources and services.